sensor_id;sensor_type;location;lat;lon;timestamp;pressure;altitude;pressure_sealevel;temperature
69704;BMP280;56967;43.538;-5.646;2022-07-25T00:02:21;101946.56;;;38.44
69704;BMP280;56967;43.538;-5.646;2022-07-25T00:04:47;101949.28;;;37.79
69704;BMP280;56967;43.538;-5.646;2022-07-25T00:07:12;101948.69;;;38.03
69704;BMP280;56967;43.538;-5.646;2022-07-25T00:09:38;101949.53;;;38.14
69704;BMP280;56967;43.538;-5.646;2022-07-25T00:12:04;101951.28;;;38.40
69704;BMP280;56967;43.538;-5.646;2022-07-25T00:14:30;101958.19;;;38.13
69704;BMP280;56967;43.538;-5.646;2022-07-25T00:16:55;101952.22;;;38.04
69704;BMP280;56967;43.538;-5.646;2022-07-25T00:19:21;101950.66;;;38.06
69704;BMP280;56967;43.538;-5.646;2022-07-25T00:21:46;101957.03;;;38.21
69704;BMP280;56967;43.538;-5.646;2022-07-25T00:24:12;101950.63;;;38.03
69704;BMP280;56967;43.538;-5.646;2022-07-25T00:26:37;101950.81;;;38.31
69704;BMP280;56967;43.538;-5.646;2022-07-25T00:29:03;101951.22;;;38.29
69704;BMP280;56967;43.538;-5.646;2022-07-25T00:31:29;101948.91;;;38.42
69704;BMP280;56967;43.538;-5.646;2022-07-25T00:33:54;101948.03;;;38.27
69704;BMP280;56967;43.538;-5.646;2022-07-25T00:36:20;101943.53;;;37.91
69704;BMP280;56967;43.538;-5.646;2022-07-25T00:38:45;101942.66;;;37.87
69704;BMP280;56967;43.538;-5.646;2022-07-25T00:41:11;101940.53;;;37.63
69704;BMP280;56967;43.538;-5.646;2022-07-25T00:43:36;101942.63;;;38.41
69704;BMP280;56967;43.538;-5.646;2022-07-25T00:46:02;101948.81;;;36.31
69704;BMP280;56967;43.538;-5.646;2022-07-25T00:48:28;101953.25;;;37.38
69704;BMP280;56967;43.538;-5.646;2022-07-25T00:50:57;101950.59;;;37.05
69704;BMP280;56967;43.538;-5.646;2022-07-25T00:53:24;101949.31;;;36.66
69704;BMP280;56967;43.538;-5.646;2022-07-25T00:55:50;101948.94;;;37.37
69704;BMP280;56967;43.538;-5.646;2022-07-25T00:58:15;101935.38;;;37.54
69704;BMP280;56967;43.538;-5.646;2022-07-25T01:00:43;101932.44;;;37.81
69704;BMP280;56967;43.538;-5.646;2022-07-25T01:03:09;101937.63;;;37.96
69704;BMP280;56967;43.538;-5.646;2022-07-25T01:05:34;101938.59;;;38.21
69704;BMP280;56967;43.538;-5.646;2022-07-25T01:08:00;101938.88;;;38.02
69704;BMP280;56967;43.538;-5.646;2022-07-25T01:10:29;101933.84;;;38.18
69704;BMP280;56967;43.538;-5.646;2022-07-25T01:12:55;101923.09;;;37.89
69704;BMP280;56967;43.538;-5.646;2022-07-25T01:15:24;101931.56;;;38.34
69704;BMP280;56967;43.538;-5.646;2022-07-25T01:17:50;101925.09;;;37.95
69704;BMP280;56967;43.538;-5.646;2022-07-25T01:20:17;101924.41;;;38.09
69704;BMP280;56967;43.538;-5.646;2022-07-25T01:22:43;101923.25;;;38.17
69704;BMP280;56967;43.538;-5.646;2022-07-25T01:25:11;101927.50;;;38.04
69704;BMP280;56967;43.538;-5.646;2022-07-25T01:27:37;101919.00;;;38.26
69704;BMP280;56967;43.538;-5.646;2022-07-25T01:30:05;101920.22;;;38.43
69704;BMP280;56967;43.538;-5.646;2022-07-25T01:32:31;101920.59;;;38.31
69704;BMP280;56967;43.538;-5.646;2022-07-25T01:34:56;101917.84;;;38.31
69704;BMP280;56967;43.538;-5.646;2022-07-25T01:37:22;101912.16;;;37.45
69704;BMP280;56967;43.538;-5.646;2022-07-25T01:39:47;101905.75;;;37.34
69704;BMP280;56967;43.538;-5.646;2022-07-25T01:42:13;101903.34;;;38.48
69704;BMP280;56967;43.538;-5.646;2022-07-25T01:44:38;101908.44;;;37.71
69704;BMP280;56967;43.538;-5.646;2022-07-25T01:47:04;101910.69;;;38.16
69704;BMP280;56967;43.538;-5.646;2022-07-25T01:49:29;101902.94;;;37.74
69704;BMP280;56967;43.538;-5.646;2022-07-25T01:51:55;101904.25;;;37.36
69704;BMP280;56967;43.538;-5.646;2022-07-25T01:54:20;101894.97;;;38.13
69704;BMP280;56967;43.538;-5.646;2022-07-25T01:56:46;101893.88;;;38.35
69704;BMP280;56967;43.538;-5.646;2022-07-25T01:59:11;101899.50;;;37.88
69704;BMP280;56967;43.538;-5.646;2022-07-25T02:01:37;101898.22;;;38.39
69704;BMP280;56967;43.538;-5.646;2022-07-25T02:04:03;101890.84;;;38.57
69704;BMP280;56967;43.538;-5.646;2022-07-25T02:06:29;101894.56;;;37.53
69704;BMP280;56967;43.538;-5.646;2022-07-25T02:08:54;101899.44;;;38.52
69704;BMP280;56967;43.538;-5.646;2022-07-25T02:11:20;101908.97;;;38.83
69704;BMP280;56967;43.538;-5.646;2022-07-25T02:13:45;101901.81;;;38.61
69704;BMP280;56967;43.538;-5.646;2022-07-25T02:16:11;101897.66;;;38.02
69704;BMP280;56967;43.538;-5.646;2022-07-25T02:18:37;101905.19;;;38.16
69704;BMP280;56967;43.538;-5.646;2022-07-25T02:21:03;101895.59;;;37.92
69704;BMP280;56967;43.538;-5.646;2022-07-25T02:23:32;101889.03;;;38.00
69704;BMP280;56967;43.538;-5.646;2022-07-25T02:25:57;101897.03;;;37.21
69704;BMP280;56967;43.538;-5.646;2022-07-25T02:28:23;101891.66;;;37.86
69704;BMP280;56967;43.538;-5.646;2022-07-25T02:30:49;101891.31;;;37.95
69704;BMP280;56967;43.538;-5.646;2022-07-25T02:33:14;101885.41;;;37.89
69704;BMP280;56967;43.538;-5.646;2022-07-25T02:35:40;101888.41;;;37.70
69704;BMP280;56967;43.538;-5.646;2022-07-25T02:38:06;101885.66;;;37.74
69704;BMP280;56967;43.538;-5.646;2022-07-25T02:40:31;101886.81;;;37.69
69704;BMP280;56967;43.538;-5.646;2022-07-25T02:42:57;101893.56;;;37.75
69704;BMP280;56967;43.538;-5.646;2022-07-25T02:45:22;101895.44;;;38.32
69704;BMP280;56967;43.538;-5.646;2022-07-25T02:47:48;101894.25;;;38.30
69704;BMP280;56967;43.538;-5.646;2022-07-25T02:50:13;101885.06;;;37.98
69704;BMP280;56967;43.538;-5.646;2022-07-25T02:52:39;101881.50;;;37.90
69704;BMP280;56967;43.538;-5.646;2022-07-25T02:55:05;101881.06;;;37.37
69704;BMP280;56967;43.538;-5.646;2022-07-25T02:57:30;101889.69;;;37.32
69704;BMP280;56967;43.538;-5.646;2022-07-25T02:59:56;101883.53;;;38.00
69704;BMP280;56967;43.538;-5.646;2022-07-25T03:02:21;101889.53;;;38.34
69704;BMP280;56967;43.538;-5.646;2022-07-25T03:04:47;101889.13;;;38.25
69704;BMP280;56967;43.538;-5.646;2022-07-25T03:07:12;101891.44;;;38.16
69704;BMP280;56967;43.538;-5.646;2022-07-25T03:09:38;101896.13;;;38.12
69704;BMP280;56967;43.538;-5.646;2022-07-25T03:12:04;101889.19;;;38.39
69704;BMP280;56967;43.538;-5.646;2022-07-25T03:14:30;101895.31;;;38.08
69704;BMP280;56967;43.538;-5.646;2022-07-25T03:16:56;101891.06;;;38.14
69704;BMP280;56967;43.538;-5.646;2022-07-25T03:19:21;101890.78;;;38.40
69704;BMP280;56967;43.538;-5.646;2022-07-25T03:21:47;101890.34;;;38.31
69704;BMP280;56967;43.538;-5.646;2022-07-25T03:24:12;101893.84;;;38.24
69704;BMP280;56967;43.538;-5.646;2022-07-25T03:26:38;101889.53;;;38.30
69704;BMP280;56967;43.538;-5.646;2022-07-25T03:29:03;101892.28;;;38.27
69704;BMP280;56967;43.538;-5.646;2022-07-25T03:31:29;101889.09;;;38.18
69704;BMP280;56967;43.538;-5.646;2022-07-25T03:33:55;101891.06;;;38.21
69704;BMP280;56967;43.538;-5.646;2022-07-25T03:36:21;101889.91;;;38.25
69704;BMP280;56967;43.538;-5.646;2022-07-25T03:38:46;101895.16;;;37.80
69704;BMP280;56967;43.538;-5.646;2022-07-25T03:41:12;101891.78;;;38.14
69704;BMP280;56967;43.538;-5.646;2022-07-25T03:43:37;101900.97;;;38.36
69704;BMP280;56967;43.538;-5.646;2022-07-25T03:46:03;101896.56;;;38.14
69704;BMP280;56967;43.538;-5.646;2022-07-25T03:48:29;101894.09;;;38.05
69704;BMP280;56967;43.538;-5.646;2022-07-25T03:50:55;101899.38;;;38.31
69704;BMP280;56967;43.538;-5.646;2022-07-25T03:53:21;101890.66;;;38.19
69704;BMP280;56967;43.538;-5.646;2022-07-25T03:55:46;101895.44;;;38.32
69704;BMP280;56967;43.538;-5.646;2022-07-25T03:58:12;101889.06;;;38.11
69704;BMP280;56967;43.538;-5.646;2022-07-25T04:00:38;101891.84;;;38.18
69704;BMP280;56967;43.538;-5.646;2022-07-25T04:03:03;101886.91;;;37.83
69704;BMP280;56967;43.538;-5.646;2022-07-25T04:05:29;101897.06;;;37.72
69704;BMP280;56967;43.538;-5.646;2022-07-25T04:07:54;101891.72;;;37.97
69704;BMP280;56967;43.538;-5.646;2022-07-25T04:10:20;101894.00;;;37.84
69704;BMP280;56967;43.538;-5.646;2022-07-25T04:12:45;101896.97;;;37.62
69704;BMP280;56967;43.538;-5.646;2022-07-25T04:15:11;101906.59;;;37.89
69704;BMP280;56967;43.538;-5.646;2022-07-25T04:17:37;101899.50;;;37.84
69704;BMP280;56967;43.538;-5.646;2022-07-25T04:20:04;101898.69;;;37.84
69704;BMP280;56967;43.538;-5.646;2022-07-25T04:22:29;101899.13;;;37.38
69704;BMP280;56967;43.538;-5.646;2022-07-25T04:24:55;101905.13;;;37.07
69704;BMP280;56967;43.538;-5.646;2022-07-25T04:27:20;101898.38;;;37.41
69704;BMP280;56967;43.538;-5.646;2022-07-25T04:29:46;101901.50;;;37.36
69704;BMP280;56967;43.538;-5.646;2022-07-25T04:32:11;101909.84;;;36.41
69704;BMP280;56967;43.538;-5.646;2022-07-25T04:34:39;101908.69;;;36.78
69704;BMP280;56967;43.538;-5.646;2022-07-25T04:37:04;101908.78;;;37.18
69704;BMP280;56967;43.538;-5.646;2022-07-25T04:39:30;101919.63;;;37.08
69704;BMP280;56967;43.538;-5.646;2022-07-25T04:41:55;101911.25;;;36.94
69704;BMP280;56967;43.538;-5.646;2022-07-25T04:44:21;101914.31;;;37.25
69704;BMP280;56967;43.538;-5.646;2022-07-25T04:46:46;101916.09;;;36.74
69704;BMP280;56967;43.538;-5.646;2022-07-25T04:49:12;101920.25;;;36.32
69704;BMP280;56967;43.538;-5.646;2022-07-25T04:51:38;101921.03;;;36.91
69704;BMP280;56967;43.538;-5.646;2022-07-25T04:54:03;101918.53;;;36.79
69704;BMP280;56967;43.538;-5.646;2022-07-25T04:56:29;101919.75;;;36.52
69704;BMP280;56967;43.538;-5.646;2022-07-25T04:58:55;101917.97;;;36.67
69704;BMP280;56967;43.538;-5.646;2022-07-25T05:01:21;101926.09;;;36.60
69704;BMP280;56967;43.538;-5.646;2022-07-25T05:03:46;101935.94;;;37.30
69704;BMP280;56967;43.538;-5.646;2022-07-25T05:06:12;101938.56;;;37.20
69704;BMP280;56967;43.538;-5.646;2022-07-25T05:08:37;101939.41;;;37.64
69704;BMP280;56967;43.538;-5.646;2022-07-25T05:11:03;101940.09;;;38.05
69704;BMP280;56967;43.538;-5.646;2022-07-25T05:13:28;101942.09;;;38.18
69704;BMP280;56967;43.538;-5.646;2022-07-25T05:15:54;101939.28;;;38.04
69704;BMP280;56967;43.538;-5.646;2022-07-25T05:18:19;101945.47;;;37.91
69704;BMP280;56967;43.538;-5.646;2022-07-25T05:20:46;101947.78;;;38.57
69704;BMP280;56967;43.538;-5.646;2022-07-25T05:23:11;101952.53;;;38.63
69704;BMP280;56967;43.538;-5.646;2022-07-25T05:25:37;101960.00;;;38.63
69704;BMP280;56967;43.538;-5.646;2022-07-25T05:28:03;101982.56;;;39.84
69704;BMP280;56967;43.538;-5.646;2022-07-25T05:30:28;101990.66;;;41.60
69704;BMP280;56967;43.538;-5.646;2022-07-25T05:32:54;101983.28;;;41.87
69704;BMP280;56967;43.538;-5.646;2022-07-25T05:35:19;102005.06;;;43.90
69704;BMP280;56967;43.538;-5.646;2022-07-25T05:37:45;102017.84;;;45.51
69704;BMP280;56967;43.538;-5.646;2022-07-25T05:40:10;102021.63;;;45.57
69704;BMP280;56967;43.538;-5.646;2022-07-25T05:42:37;102021.56;;;47.32
69704;BMP280;56967;43.538;-5.646;2022-07-25T05:45:03;102006.03;;;48.98
69704;BMP280;56967;43.538;-5.646;2022-07-25T05:47:28;102003.06;;;46.70
69704;BMP280;56967;43.538;-5.646;2022-07-25T05:49:56;102008.38;;;48.64
69704;BMP280;56967;43.538;-5.646;2022-07-25T05:52:21;102002.59;;;48.40
69704;BMP280;56967;43.538;-5.646;2022-07-25T05:54:47;102075.91;;;51.64
69704;BMP280;56967;43.538;-5.646;2022-07-25T05:57:12;102006.16;;;49.31
69704;BMP280;56967;43.538;-5.646;2022-07-25T05:59:38;101993.03;;;47.50
69704;BMP280;56967;43.538;-5.646;2022-07-25T06:02:03;102012.06;;;45.58
69704;BMP280;56967;43.538;-5.646;2022-07-25T06:04:29;102008.41;;;46.15
69704;BMP280;56967;43.538;-5.646;2022-07-25T06:06:54;102118.38;;;46.98
69704;BMP280;56967;43.538;-5.646;2022-07-25T06:09:21;102014.75;;;49.09
69704;BMP280;56967;43.538;-5.646;2022-07-25T06:11:47;102008.50;;;47.08
69704;BMP280;56967;43.538;-5.646;2022-07-25T06:14:13;102017.53;;;46.65
69704;BMP280;56967;43.538;-5.646;2022-07-25T06:16:40;102020.09;;;46.22
69704;BMP280;56967;43.538;-5.646;2022-07-25T06:19:06;102003.50;;;45.53
69704;BMP280;56967;43.538;-5.646;2022-07-25T06:21:31;102013.56;;;45.34
69704;BMP280;56967;43.538;-5.646;2022-07-25T06:23:57;102012.84;;;45.14
69704;BMP280;56967;43.538;-5.646;2022-07-25T06:26:22;102013.19;;;44.52
69704;BMP280;56967;43.538;-5.646;2022-07-25T06:28:49;102012.50;;;44.13
69704;BMP280;56967;43.538;-5.646;2022-07-25T06:31:15;102013.19;;;43.78
69704;BMP280;56967;43.538;-5.646;2022-07-25T06:33:40;102009.16;;;42.94
69704;BMP280;56967;43.538;-5.646;2022-07-25T06:36:06;102030.06;;;41.71
69704;BMP280;56967;43.538;-5.646;2022-07-25T06:38:32;102031.53;;;41.38
69704;BMP280;56967;43.538;-5.646;2022-07-25T06:40:58;102030.88;;;40.45
69704;BMP280;56967;43.538;-5.646;2022-07-25T06:43:23;102033.16;;;41.76
69704;BMP280;56967;43.538;-5.646;2022-07-25T06:45:49;102042.81;;;42.35
69704;BMP280;56967;43.538;-5.646;2022-07-25T06:48:15;102052.75;;;41.48
69704;BMP280;56967;43.538;-5.646;2022-07-25T06:50:41;102051.09;;;42.02
69704;BMP280;56967;43.538;-5.646;2022-07-25T06:53:07;102050.56;;;41.73
69704;BMP280;56967;43.538;-5.646;2022-07-25T06:55:32;102058.94;;;41.66
69704;BMP280;56967;43.538;-5.646;2022-07-25T06:57:58;102054.22;;;42.37
69704;BMP280;56967;43.538;-5.646;2022-07-25T07:00:23;102060.81;;;41.73
69704;BMP280;56967;43.538;-5.646;2022-07-25T07:02:54;102059.06;;;41.93
69704;BMP280;56967;43.538;-5.646;2022-07-25T07:05:24;102045.94;;;41.05
69704;BMP280;56967;43.538;-5.646;2022-07-25T07:07:50;102059.31;;;41.17
69704;BMP280;56967;43.538;-5.646;2022-07-25T07:10:17;102060.81;;;41.25
69704;BMP280;56967;43.538;-5.646;2022-07-25T07:12:43;102064.81;;;40.17
69704;BMP280;56967;43.538;-5.646;2022-07-25T07:15:09;102076.03;;;40.89
69704;BMP280;56967;43.538;-5.646;2022-07-25T07:17:35;102067.22;;;39.98
69704;BMP280;56967;43.538;-5.646;2022-07-25T07:20:01;102077.84;;;40.03
69704;BMP280;56967;43.538;-5.646;2022-07-25T07:22:26;102070.75;;;39.59
69704;BMP280;56967;43.538;-5.646;2022-07-25T07:24:52;102078.13;;;40.57
69704;BMP280;56967;43.538;-5.646;2022-07-25T07:27:17;102084.94;;;40.00
69704;BMP280;56967;43.538;-5.646;2022-07-25T07:29:43;102086.38;;;39.13
69704;BMP280;56967;43.538;-5.646;2022-07-25T07:32:08;102093.59;;;39.99
69704;BMP280;56967;43.538;-5.646;2022-07-25T07:34:34;102096.34;;;39.74
69704;BMP280;56967;43.538;-5.646;2022-07-25T07:36:59;102097.53;;;40.12
69704;BMP280;56967;43.538;-5.646;2022-07-25T07:39:26;102094.53;;;40.96
69704;BMP280;56967;43.538;-5.646;2022-07-25T07:41:52;102099.09;;;41.30
69704;BMP280;56967;43.538;-5.646;2022-07-25T07:44:17;102103.66;;;41.51
69704;BMP280;56967;43.538;-5.646;2022-07-25T07:46:43;102093.50;;;40.62
69704;BMP280;56967;43.538;-5.646;2022-07-25T07:49:08;102098.22;;;40.68
69704;BMP280;56967;43.538;-5.646;2022-07-25T07:51:34;102105.56;;;40.96
69704;BMP280;56967;43.538;-5.646;2022-07-25T07:53:59;102110.75;;;41.52
69704;BMP280;56967;43.538;-5.646;2022-07-25T07:56:43;102111.66;;;41.89
69704;BMP280;56967;43.538;-5.646;2022-07-25T07:59:10;102114.41;;;42.64
69704;BMP280;56967;43.538;-5.646;2022-07-25T08:01:36;102111.53;;;43.01
69704;BMP280;56967;43.538;-5.646;2022-07-25T08:04:01;102107.56;;;41.57
69704;BMP280;56967;43.538;-5.646;2022-07-25T08:06:27;102109.25;;;42.28
69704;BMP280;56967;43.538;-5.646;2022-07-25T08:08:53;102102.28;;;42.50
69704;BMP280;56967;43.538;-5.646;2022-07-25T08:11:19;102103.03;;;42.21
69704;BMP280;56967;43.538;-5.646;2022-07-25T08:13:44;102104.88;;;41.50
69704;BMP280;56967;43.538;-5.646;2022-07-25T08:16:11;102093.59;;;41.20
69704;BMP280;56967;43.538;-5.646;2022-07-25T08:18:38;102099.50;;;40.36
69704;BMP280;56967;43.538;-5.646;2022-07-25T08:21:05;102104.66;;;41.74
69704;BMP280;56967;43.538;-5.646;2022-07-25T08:23:32;102106.38;;;41.58
69704;BMP280;56967;43.538;-5.646;2022-07-25T08:26:00;102113.34;;;42.17
69704;BMP280;56967;43.538;-5.646;2022-07-25T08:28:27;102112.56;;;42.16
69704;BMP280;56967;43.538;-5.646;2022-07-25T08:30:52;102113.63;;;42.63
69704;BMP280;56967;43.538;-5.646;2022-07-25T08:33:18;102118.22;;;42.73
69704;BMP280;56967;43.538;-5.646;2022-07-25T08:35:48;102125.69;;;43.33
69704;BMP280;56967;43.538;-5.646;2022-07-25T08:38:17;102121.56;;;44.10
69704;BMP280;56967;43.538;-5.646;2022-07-25T08:40:42;102129.25;;;44.61
69704;BMP280;56967;43.538;-5.646;2022-07-25T08:43:15;102133.59;;;45.13
69704;BMP280;56967;43.538;-5.646;2022-07-25T08:45:47;102145.19;;;45.44
69704;BMP280;56967;43.538;-5.646;2022-07-25T08:48:16;102138.38;;;46.18
69704;BMP280;56967;43.538;-5.646;2022-07-25T08:50:42;102138.38;;;45.45
69704;BMP280;56967;43.538;-5.646;2022-07-25T08:53:08;102137.06;;;45.33
69704;BMP280;56967;43.538;-5.646;2022-07-25T08:55:33;102140.22;;;45.19
69704;BMP280;56967;43.538;-5.646;2022-07-25T08:57:59;102153.03;;;46.06
69704;BMP280;56967;43.538;-5.646;2022-07-25T09:00:26;102152.91;;;46.38
69704;BMP280;56967;43.538;-5.646;2022-07-25T09:03:03;102186.59;;;47.65
69704;BMP280;56967;43.538;-5.646;2022-07-25T09:05:31;102173.66;;;48.93
69704;BMP280;56967;43.538;-5.646;2022-07-25T09:08:15;102179.00;;;49.18
69704;BMP280;56967;43.538;-5.646;2022-07-25T09:10:51;102166.91;;;48.33
69704;BMP280;56967;43.538;-5.646;2022-07-25T09:13:19;102165.69;;;48.73
69704;BMP280;56967;43.538;-5.646;2022-07-25T09:15:52;102177.28;;;49.02
69704;BMP280;56967;43.538;-5.646;2022-07-25T09:18:23;102169.69;;;49.48
69704;BMP280;56967;43.538;-5.646;2022-07-25T09:20:51;102178.22;;;49.26
69704;BMP280;56967;43.538;-5.646;2022-07-25T09:26:03;102171.00;;;48.98
69704;BMP280;56967;43.538;-5.646;2022-07-25T09:28:29;102164.94;;;48.82
69704;BMP280;56967;43.538;-5.646;2022-07-25T09:30:57;102434.34;;;52.57
69704;BMP280;56967;43.538;-5.646;2022-07-25T09:33:24;102433.19;;;59.96
69704;BMP280;56967;43.538;-5.646;2022-07-25T09:35:51;102440.72;;;63.60
69704;BMP280;56967;43.538;-5.646;2022-07-25T09:38:18;102419.34;;;64.94
69704;BMP280;56967;43.538;-5.646;2022-07-25T09:41:00;102394.00;;;66.18
69704;BMP280;56967;43.538;-5.646;2022-07-25T09:43:41;102381.28;;;66.38
69704;BMP280;56967;43.538;-5.646;2022-07-25T09:46:07;102375.41;;;67.20
69704;BMP280;56967;43.538;-5.646;2022-07-25T09:48:34;102363.09;;;66.81
69704;BMP280;56967;43.538;-5.646;2022-07-25T09:51:00;102357.00;;;64.46
69704;BMP280;56967;43.538;-5.646;2022-07-25T09:53:26;102323.97;;;61.53
69704;BMP280;56967;43.538;-5.646;2022-07-25T09:55:52;102348.84;;;59.86
69704;BMP280;56967;43.538;-5.646;2022-07-25T09:58:19;102336.09;;;59.16
69704;BMP280;56967;43.538;-5.646;2022-07-25T10:00:45;102224.88;;;54.62
69704;BMP280;56967;43.538;-5.646;2022-07-25T10:03:14;102260.34;;;48.62
69704;BMP280;56967;43.538;-5.646;2022-07-25T10:08:38;102208.91;;;44.25
69704;BMP280;56967;43.538;-5.646;2022-07-25T10:11:04;102214.41;;;44.05
69704;BMP280;56967;43.538;-5.646;2022-07-25T10:13:34;102212.06;;;44.27
69704;BMP280;56967;43.538;-5.646;2022-07-25T10:16:01;102219.63;;;43.54
69704;BMP280;56967;43.538;-5.646;2022-07-25T10:18:29;102213.63;;;43.55
69704;BMP280;56967;43.538;-5.646;2022-07-25T10:21:08;102198.31;;;42.20
69704;BMP280;56967;43.538;-5.646;2022-07-25T10:23:35;102204.59;;;42.24
69704;BMP280;56967;43.538;-5.646;2022-07-25T10:28:43;102212.50;;;42.59
69704;BMP280;56967;43.538;-5.646;2022-07-25T10:31:16;102211.50;;;41.98
69704;BMP280;56967;43.538;-5.646;2022-07-25T10:33:45;102199.56;;;42.12
69704;BMP280;56967;43.538;-5.646;2022-07-25T10:36:11;102222.41;;;41.65
69704;BMP280;56967;43.538;-5.646;2022-07-25T10:38:38;102215.03;;;41.37
69704;BMP280;56967;43.538;-5.646;2022-07-25T10:41:05;102210.59;;;40.08
69704;BMP280;56967;43.538;-5.646;2022-07-25T10:43:38;102213.69;;;40.70
69704;BMP280;56967;43.538;-5.646;2022-07-25T10:46:16;102209.66;;;41.13
69704;BMP280;56967;43.538;-5.646;2022-07-25T10:48:42;102207.78;;;40.78
69704;BMP280;56967;43.538;-5.646;2022-07-25T10:51:12;102208.97;;;40.74
69704;BMP280;56967;43.538;-5.646;2022-07-25T10:56:09;102220.75;;;40.88
69704;BMP280;56967;43.538;-5.646;2022-07-25T10:59:00;102222.22;;;42.37
69704;BMP280;56967;43.538;-5.646;2022-07-25T11:01:31;102228.66;;;43.31
69704;BMP280;56967;43.538;-5.646;2022-07-25T11:04:02;102215.63;;;41.73
69704;BMP280;56967;43.538;-5.646;2022-07-25T11:06:39;102209.34;;;39.88
69704;BMP280;56967;43.538;-5.646;2022-07-25T11:11:50;102214.41;;;41.09
69704;BMP280;56967;43.538;-5.646;2022-07-25T11:14:27;102214.38;;;39.44
69704;BMP280;56967;43.538;-5.646;2022-07-25T11:16:55;102220.97;;;39.29
69704;BMP280;56967;43.538;-5.646;2022-07-25T11:19:28;102221.59;;;40.15
69704;BMP280;56967;43.538;-5.646;2022-07-25T11:21:59;102218.91;;;40.50
69704;BMP280;56967;43.538;-5.646;2022-07-25T11:24:39;102224.44;;;39.19
69704;BMP280;56967;43.538;-5.646;2022-07-25T11:27:07;102220.03;;;40.11
69704;BMP280;56967;43.538;-5.646;2022-07-25T11:29:34;102222.03;;;40.21
69704;BMP280;56967;43.538;-5.646;2022-07-25T11:32:08;102226.28;;;40.92
69704;BMP280;56967;43.538;-5.646;2022-07-25T11:34:47;102220.44;;;40.30
69704;BMP280;56967;43.538;-5.646;2022-07-25T11:37:14;102221.25;;;39.10
69704;BMP280;56967;43.538;-5.646;2022-07-25T11:39:42;102223.94;;;39.92
69704;BMP280;56967;43.538;-5.646;2022-07-25T11:44:53;102222.81;;;40.49
69704;BMP280;56967;43.538;-5.646;2022-07-25T11:47:28;102232.94;;;41.12
69704;BMP280;56967;43.538;-5.646;2022-07-25T11:49:56;102233.69;;;39.58
69704;BMP280;56967;43.538;-5.646;2022-07-25T11:52:27;102227.91;;;40.05
69704;BMP280;56967;43.538;-5.646;2022-07-25T11:55:16;102233.84;;;39.14
69704;BMP280;56967;43.538;-5.646;2022-07-25T11:57:46;102234.06;;;39.49
69704;BMP280;56967;43.538;-5.646;2022-07-25T12:00:18;102232.97;;;38.96
69704;BMP280;56967;43.538;-5.646;2022-07-25T12:02:44;102237.97;;;39.55
69704;BMP280;56967;43.538;-5.646;2022-07-25T12:05:15;102227.47;;;40.94
69704;BMP280;56967;43.538;-5.646;2022-07-25T12:07:46;102231.84;;;39.97
69704;BMP280;56967;43.538;-5.646;2022-07-25T12:10:13;102227.13;;;40.15
69704;BMP280;56967;43.538;-5.646;2022-07-25T12:12:45;102232.53;;;39.73
69704;BMP280;56967;43.538;-5.646;2022-07-25T12:15:11;102229.50;;;40.13
69704;BMP280;56967;43.538;-5.646;2022-07-25T12:17:39;102227.94;;;40.12
69704;BMP280;56967;43.538;-5.646;2022-07-25T12:20:12;102227.91;;;40.09
69704;BMP280;56967;43.538;-5.646;2022-07-25T12:22:37;102233.44;;;40.16
69704;BMP280;56967;43.538;-5.646;2022-07-25T12:25:03;102228.72;;;40.62
69704;BMP280;56967;43.538;-5.646;2022-07-25T12:27:29;102228.31;;;40.70
69704;BMP280;56967;43.538;-5.646;2022-07-25T12:29:55;102238.56;;;40.73
69704;BMP280;56967;43.538;-5.646;2022-07-25T12:32:21;102233.72;;;41.84
69704;BMP280;56967;43.538;-5.646;2022-07-25T12:34:46;102222.06;;;41.59
69704;BMP280;56967;43.538;-5.646;2022-07-25T12:37:12;102228.31;;;40.70
69704;BMP280;56967;43.538;-5.646;2022-07-25T12:39:37;102232.53;;;41.13
69704;BMP280;56967;43.538;-5.646;2022-07-25T12:42:03;102229.88;;;40.68
69704;BMP280;56967;43.538;-5.646;2022-07-25T12:44:28;102222.78;;;40.60
69704;BMP280;56967;43.538;-5.646;2022-07-25T12:46:54;102227.13;;;41.64
69704;BMP280;56967;43.538;-5.646;2022-07-25T12:49:19;102231.22;;;41.42
69704;BMP280;56967;43.538;-5.646;2022-07-25T12:51:45;102222.94;;;41.42
69704;BMP280;56967;43.538;-5.646;2022-07-25T12:54:10;102223.16;;;41.69
69704;BMP280;56967;43.538;-5.646;2022-07-25T12:56:36;102230.41;;;41.42
69704;BMP280;56967;43.538;-5.646;2022-07-25T12:59:01;102226.53;;;41.97
69704;BMP280;56967;43.538;-5.646;2022-07-25T13:01:27;102231.00;;;40.95
69704;BMP280;56967;43.538;-5.646;2022-07-25T13:03:52;102228.28;;;40.00
69704;BMP280;56967;43.538;-5.646;2022-07-25T13:06:18;102229.81;;;41.03
69704;BMP280;56967;43.538;-5.646;2022-07-25T13:08:45;102234.25;;;42.61
69704;BMP280;56967;43.538;-5.646;2022-07-25T13:11:11;102245.22;;;43.05
69704;BMP280;56967;43.538;-5.646;2022-07-25T13:13:37;102228.22;;;42.32
69704;BMP280;56967;43.538;-5.646;2022-07-25T13:16:03;102221.63;;;41.64
69704;BMP280;56967;43.538;-5.646;2022-07-25T13:18:28;102221.44;;;42.36
69704;BMP280;56967;43.538;-5.646;2022-07-25T13:20:54;102224.78;;;40.59
69704;BMP280;56967;43.538;-5.646;2022-07-25T13:23:20;102217.63;;;40.83
69704;BMP280;56967;43.538;-5.646;2022-07-25T13:25:45;102209.72;;;40.92
69704;BMP280;56967;43.538;-5.646;2022-07-25T13:28:11;102215.69;;;40.03
69704;BMP280;56967;43.538;-5.646;2022-07-25T13:30:37;102210.97;;;40.03
69704;BMP280;56967;43.538;-5.646;2022-07-25T13:33:02;102208.56;;;39.84
69704;BMP280;56967;43.538;-5.646;2022-07-25T13:35:28;102213.72;;;39.82
69704;BMP280;56967;43.538;-5.646;2022-07-25T13:37:53;102220.00;;;39.83
69704;BMP280;56967;43.538;-5.646;2022-07-25T13:40:19;102211.38;;;40.02
69704;BMP280;56967;43.538;-5.646;2022-07-25T13:42:44;102220.19;;;39.32
69704;BMP280;56967;43.538;-5.646;2022-07-25T13:45:10;102218.34;;;39.60
69704;BMP280;56967;43.538;-5.646;2022-07-25T13:47:36;102219.94;;;39.68
69704;BMP280;56967;43.538;-5.646;2022-07-25T13:50:01;102223.81;;;39.53
69704;BMP280;56967;43.538;-5.646;2022-07-25T13:52:27;102216.00;;;39.59
69704;BMP280;56967;43.538;-5.646;2022-07-25T13:54:53;102220.97;;;38.24
69704;BMP280;56967;43.538;-5.646;2022-07-25T13:57:18;102222.53;;;39.30
69704;BMP280;56967;43.538;-5.646;2022-07-25T13:59:44;102221.25;;;39.10